sensor_id;sensor_type;location;lat;lon;timestamp;pressure;altitude;pressure_sealevel;temperature;humidity
10064;BME280;5071;52.360;13.134;2023-03-15T00:02:20;100261.44;;;0.52;90.08
10064;BME280;5071;52.360;13.134;2023-03-15T00:07:24;100275.28;;;0.48;90.38
10064;BME280;5071;52.360;13.134;2023-03-15T00:12:28;100288.31;;;0.47;90.55
10064;BME280;5071;52.360;13.134;2023-03-15T00:17:30;100298.63;;;0.41;90.49
10064;BME280;5071;52.360;13.134;2023-03-15T00:22:34;100311.16;;;0.57;89.46
10064;BME280;5071;52.360;13.134;2023-03-15T00:27:36;100328.34;;;0.46;89.82
10064;BME280;5071;52.360;13.134;2023-03-15T00:32:38;100326.75;;;0.54;88.94
10064;BME280;5071;52.360;13.134;2023-03-15T00:37:41;100337.19;;;0.54;88.98
10064;BME280;5071;52.360;13.134;2023-03-15T00:42:45;100340.53;;;0.47;89.77
10064;BME280;5071;52.360;13.134;2023-03-15T00:47:48;100350.75;;;0.37;89.34
10064;BME280;5071;52.360;13.134;2023-03-15T00:52:52;100348.09;;;0.34;89.64
10064;BME280;5071;52.360;13.134;2023-03-15T00:57:55;100345.44;;;0.33;90.17
10064;BME280;5071;52.360;13.134;2023-03-15T01:02:57;100354.03;;;0.27;90.31
10064;BME280;5071;52.360;13.134;2023-03-15T01:08:01;100362.63;;;0.23;90.44
10064;BME280;5071;52.360;13.134;2023-03-15T01:13:03;100369.47;;;0.18;91.29
10064;BME280;5071;52.360;13.134;2023-03-15T01:18:05;100371.81;;;0.07;91.59
10064;BME280;5071;52.360;13.134;2023-03-15T01:23:09;100382.97;;;0.02;91.79
10064;BME280;5071;52.360;13.134;2023-03-15T01:28:10;100385.59;;;0.02;92.30
10064;BME280;5071;52.360;13.134;2023-03-15T01:33:12;100396.50;;;-0.15;92.07
10064;BME280;5071;52.360;13.134;2023-03-15T01:38:15;100398.88;;;-0.24;93.80
10064;BME280;5071;52.360;13.134;2023-03-15T01:43:19;100404.69;;;-0.34;94.65
10064;BME280;5071;52.360;13.134;2023-03-15T01:48:24;100407.00;;;-0.45;95.46
10064;BME280;5071;52.360;13.134;2023-03-15T01:53:31;100401.53;;;-0.56;95.44
10064;BME280;5071;52.360;13.134;2023-03-15T01:58:35;100408.44;;;-0.56;96.56
10064;BME280;5071;52.360;13.134;2023-03-15T02:03:41;100411.19;;;-0.52;97.11
10064;BME280;5071;52.360;13.134;2023-03-15T02:08:49;100416.03;;;-0.64;96.54
10064;BME280;5071;52.360;13.134;2023-03-15T02:13:53;100412.72;;;-0.60;96.17
10064;BME280;5071;52.360;13.134;2023-03-15T02:18:57;100417.81;;;-0.63;96.17
10064;BME280;5071;52.360;13.134;2023-03-15T02:24:08;100425.13;;;-0.50;95.87
10064;BME280;5071;52.360;13.134;2023-03-15T02:29:14;100422.63;;;-0.47;95.06
10064;BME280;5071;52.360;13.134;2023-03-15T02:34:17;100430.44;;;-0.47;95.38
10064;BME280;5071;52.360;13.134;2023-03-15T02:39:20;100445.91;;;-0.53;95.13
10064;BME280;5071;52.360;13.134;2023-03-15T02:44:27;100441.81;;;-0.45;95.50
10064;BME280;5071;52.360;13.134;2023-03-15T02:49:32;100446.16;;;-0.44;95.04
10064;BME280;5071;52.360;13.134;2023-03-15T02:54:36;100461.09;;;-0.38;94.28
10064;BME280;5071;52.360;13.134;2023-03-15T02:59:40;100467.44;;;-0.28;93.59
10064;BME280;5071;52.360;13.134;2023-03-15T03:04:42;100469.09;;;-0.30;93.31
10064;BME280;5071;52.360;13.134;2023-03-15T03:09:44;100480.41;;;-0.31;93.22
10064;BME280;5071;52.360;13.134;2023-03-15T03:14:47;100472.88;;;-0.19;92.85
10064;BME280;5071;52.360;13.134;2023-03-15T03:19:50;100483.31;;;-0.19;92.48
10064;BME280;5071;52.360;13.134;2023-03-15T03:24:52;100485.00;;;-0.21;92.62
10064;BME280;5071;52.360;13.134;2023-03-15T03:29:55;100491.66;;;-0.32;92.60
10064;BME280;5071;52.360;13.134;2023-03-15T03:34:58;100494.19;;;-0.35;92.56
10064;BME280;5071;52.360;13.134;2023-03-15T03:40:00;100494.81;;;-0.44;92.72
10064;BME280;5071;52.360;13.134;2023-03-15T03:45:06;100511.78;;;-0.59;93.59
10064;BME280;5071;52.360;13.134;2023-03-15T03:50:10;100529.03;;;-0.62;94.30
10064;BME280;5071;52.360;13.134;2023-03-15T03:55:12;100534.09;;;-0.68;94.74
10064;BME280;5071;52.360;13.134;2023-03-15T04:00:19;100542.06;;;-0.64;94.44
10064;BME280;5071;52.360;13.134;2023-03-15T04:05:23;100537.81;;;-0.60;94.26
10064;BME280;5071;52.360;13.134;2023-03-15T04:10:27;100543.97;;;-0.56;94.30
10064;BME280;5071;52.360;13.134;2023-03-15T04:15:31;100546.56;;;-0.58;94.00
10064;BME280;5071;52.360;13.134;2023-03-15T04:20:36;100549.13;;;-0.60;94.74
10064;BME280;5071;52.360;13.134;2023-03-15T04:25:39;100554.47;;;-0.84;95.33
10064;BME280;5071;52.360;13.134;2023-03-15T04:30:44;100573.47;;;-0.88;96.25
10064;BME280;5071;52.360;13.134;2023-03-15T04:35:46;100571.50;;;-0.95;96.77
10064;BME280;5071;52.360;13.134;2023-03-15T04:40:50;100569.69;;;-0.98;96.67
10064;BME280;5071;52.360;13.134;2023-03-15T04:45:54;100566.19;;;-0.98;96.18
10064;BME280;5071;52.360;13.134;2023-03-15T04:50:57;100593.69;;;-0.79;96.42
10064;BME280;5071;52.360;13.134;2023-03-15T04:56:00;100599.88;;;-0.75;95.60
10064;BME280;5071;52.360;13.134;2023-03-15T05:01:07;100615.63;;;-0.72;95.43
10064;BME280;5071;52.360;13.134;2023-03-15T05:06:10;100626.34;;;-0.63;95.00
10064;BME280;5071;52.360;13.134;2023-03-15T05:11:13;100629.06;;;-0.60;95.49
10064;BME280;5071;52.360;13.134;2023-03-15T05:16:17;100635.09;;;-0.61;94.71
10064;BME280;5071;52.360;13.134;2023-03-15T05:21:19;100644.41;;;-0.69;94.97
10064;BME280;5071;52.360;13.134;2023-03-15T05:26:22;100646.22;;;-0.67;95.10
10064;BME280;5071;52.360;13.134;2023-03-15T05:31:25;100652.78;;;-0.51;94.96
10064;BME280;5071;52.360;13.134;2023-03-15T05:36:39;100663.78;;;-0.32;94.10
10064;BME280;5071;52.360;13.134;2023-03-15T05:41:46;100673.78;;;-0.17;93.76
10064;BME280;5071;52.360;13.134;2023-03-15T05:46:50;100677.59;;;-0.06;93.67
10064;BME280;5071;52.360;13.134;2023-03-15T05:51:54;100692.75;;;0.06;93.18
10064;BME280;5071;52.360;13.134;2023-03-15T05:56:57;100700.97;;;0.19;92.37
10064;BME280;5071;52.360;13.134;2023-03-15T06:02:02;100703.69;;;0.23;92.03
10064;BME280;5071;52.360;13.134;2023-03-15T06:07:04;100730.16;;;0.36;92.08
10064;BME280;5071;52.360;13.134;2023-03-15T06:12:07;100723.38;;;0.42;91.70
10064;BME280;5071;52.360;13.134;2023-03-15T06:17:11;100734.13;;;0.54;91.29
10064;BME280;5071;52.360;13.134;2023-03-15T06:22:15;100737.78;;;0.59;91.14
10064;BME280;5071;52.360;13.134;2023-03-15T06:27:17;100748.88;;;0.52;91.16
10064;BME280;5071;52.360;13.134;2023-03-15T06:32:21;100744.59;;;0.54;90.65
10064;BME280;5071;52.360;13.134;2023-03-15T06:37:23;100766.75;;;0.68;89.86
10064;BME280;5071;52.360;13.134;2023-03-15T06:42:36;100755.00;;;0.84;89.71
10064;BME280;5071;52.360;13.134;2023-03-15T06:47:39;100774.50;;;0.97;89.08
10064;BME280;5071;52.360;13.134;2023-03-15T06:52:41;100770.31;;;1.02;89.13
10064;BME280;5071;52.360;13.134;2023-03-15T06:57:43;100775.53;;;1.02;88.92
10064;BME280;5071;52.360;13.134;2023-03-15T07:02:47;100777.47;;;1.09;89.19
10064;BME280;5071;52.360;13.134;2023-03-15T07:07:50;100791.19;;;1.34;87.88
10064;BME280;5071;52.360;13.134;2023-03-15T07:12:52;100803.38;;;2.06;86.89
10064;BME280;5071;52.360;13.134;2023-03-15T07:17:56;100808.47;;;2.37;83.42
10064;BME280;5071;52.360;13.134;2023-03-15T07:22:59;100805.84;;;2.37;83.51
10064;BME280;5071;52.360;13.134;2023-03-15T07:28:01;100810.75;;;2.23;83.52
10064;BME280;5071;52.360;13.134;2023-03-15T07:33:04;100808.19;;;2.24;83.49
10064;BME280;5071;52.360;13.134;2023-03-15T07:38:06;100818.94;;;2.37;83.09
10064;BME280;5071;52.360;13.134;2023-03-15T07:43:08;100821.97;;;2.57;83.03
10064;BME280;5071;52.360;13.134;2023-03-15T07:48:11;100833.47;;;2.63;82.90
10064;BME280;5071;52.360;13.134;2023-03-15T07:53:14;100832.28;;;2.90;81.55
10064;BME280;5071;52.360;13.134;2023-03-15T07:58:16;100838.25;;;3.27;80.82
10064;BME280;5071;52.360;13.134;2023-03-15T08:03:22;100835.16;;;3.04;79.80
10064;BME280;5071;52.360;13.134;2023-03-15T08:08:24;100840.06;;;3.31;80.44
10064;BME280;5071;52.360;13.134;2023-03-15T08:13:26;100852.00;;;3.15;79.87
10064;BME280;5071;52.360;13.134;2023-03-15T08:18:30;100852.91;;;3.17;80.22
10064;BME280;5071;52.360;13.134;2023-03-15T08:23:32;100859.94;;;3.18;80.36
10064;BME280;5071;52.360;13.134;2023-03-15T08:28:34;100862.59;;;3.20;80.08
10064;BME280;5071;52.360;13.134;2023-03-15T08:33:37;100884.44;;;3.66;78.80
10064;BME280;5071;52.360;13.134;2023-03-15T08:38:40;100880.09;;;3.66;78.68
10064;BME280;5071;52.360;13.134;2023-03-15T08:43:42;100890.78;;;3.79;78.06
10064;BME280;5071;52.360;13.134;2023-03-15T08:48:45;100897.63;;;4.19;78.08
10064;BME280;5071;52.360;13.134;2023-03-15T08:53:47;100900.22;;;4.18;78.67
10064;BME280;5071;52.360;13.134;2023-03-15T08:58:49;100909.78;;;4.14;76.76
10064;BME280;5071;52.360;13.134;2023-03-15T09:03:54;100920.91;;;3.99;78.50
10064;BME280;5071;52.360;13.134;2023-03-15T09:08:56;100929.88;;;4.12;77.45
10064;BME280;5071;52.360;13.134;2023-03-15T09:13:58;100923.09;;;4.25;75.93
10064;BME280;5071;52.360;13.134;2023-03-15T09:19:01;100935.34;;;4.23;75.45
10064;BME280;5071;52.360;13.134;2023-03-15T09:24:04;100933.59;;;4.23;75.97
10064;BME280;5071;52.360;13.134;2023-03-15T09:29:06;100948.97;;;4.55;74.62
10064;BME280;5071;52.360;13.134;2023-03-15T09:34:10;100948.00;;;4.48;73.45
10064;BME280;5071;52.360;13.134;2023-03-15T09:39:12;100964.34;;;4.87;72.18
10064;BME280;5071;52.360;13.134;2023-03-15T09:44:31;100980.19;;;5.56;70.29
10064;BME280;5071;52.360;13.134;2023-03-15T09:49:41;100983.28;;;5.24;68.26
10064;BME280;5071;52.360;13.134;2023-03-15T09:54:50;100988.47;;;4.58;71.18
10064;BME280;5071;52.360;13.134;2023-03-15T09:59:53;100989.25;;;4.54;71.75
10064;BME280;5071;52.360;13.134;2023-03-15T10:05:06;100994.38;;;5.67;69.56
10064;BME280;5071;52.360;13.134;2023-03-15T10:10:16;101001.75;;;5.29;67.72
10064;BME280;5071;52.360;13.134;2023-03-15T10:15:35;100999.41;;;6.25;66.65
10064;BME280;5071;52.360;13.134;2023-03-15T10:20:44;101006.28;;;11.87;48.00
10064;BME280;5071;52.360;13.134;2023-03-15T10:25:49;101007.59;;;8.71;55.23
10064;BME280;5071;52.360;13.134;2023-03-15T10:30:58;101008.84;;;6.03;63.29
10064;BME280;5071;52.360;13.134;2023-03-15T10:36:12;101015.56;;;5.11;66.56
10064;BME280;5071;52.360;13.134;2023-03-15T10:41:27;101010.97;;;4.42;67.23
10064;BME280;5071;52.360;13.134;2023-03-15T10:46:29;101021.81;;;5.19;64.87
10064;BME280;5071;52.360;13.134;2023-03-15T10:51:37;101021.44;;;5.57;64.84
10064;BME280;5071;52.360;13.134;2023-03-15T10:56:44;101016.22;;;7.79;57.48
10064;BME280;5071;52.360;13.134;2023-03-15T11:01:48;101015.53;;;8.62;55.37
10064;BME280;5071;52.360;13.134;2023-03-15T11:07:00;101019.88;;;8.30;53.59
10064;BME280;5071;52.360;13.134;2023-03-15T11:12:04;101015.72;;;10.48;49.83
10064;BME280;5071;52.360;13.134;2023-03-15T11:17:14;101017.91;;;12.98;44.33
10064;BME280;5071;52.360;13.134;2023-03-15T11:22:18;101017.06;;;9.67;51.16
10064;BME280;5071;52.360;13.134;2023-03-15T11:27:22;101022.88;;;7.05;56.75
10064;BME280;5071;52.360;13.134;2023-03-15T11:32:28;101028.34;;;6.20;59.77
10064;BME280;5071;52.360;13.134;2023-03-15T11:37:37;101030.03;;;6.15;60.85
10064;BME280;5071;52.360;13.134;2023-03-15T11:42:46;101023.50;;;6.68;60.34
10064;BME280;5071;52.360;13.134;2023-03-15T11:47:52;101035.03;;;6.82;58.99
10064;BME280;5071;52.360;13.134;2023-03-15T11:52:58;101024.38;;;6.72;59.64
10064;BME280;5071;52.360;13.134;2023-03-15T11:58:26;101044.38;;;7.74;58.26
10064;BME280;5071;52.360;13.134;2023-03-15T12:03:35;101020.72;;;8.18;56.42
10064;BME280;5071;52.360;13.134;2023-03-15T12:08:45;101038.09;;;7.52;57.61
10064;BME280;5071;52.360;13.134;2023-03-15T12:13:53;101030.97;;;7.35;56.43
10064;BME280;5071;52.360;13.134;2023-03-15T12:19:09;101032.94;;;7.73;53.56
10064;BME280;5071;52.360;13.134;2023-03-15T12:24:19;101026.03;;;8.28;53.17
10064;BME280;5071;52.360;13.134;2023-03-15T12:29:26;101029.47;;;7.87;52.39
10064;BME280;5071;52.360;13.134;2023-03-15T12:34:35;101030.97;;;7.35;52.53
10064;BME280;5071;52.360;13.134;2023-03-15T12:39:42;101037.19;;;7.42;53.13
10064;BME280;5071;52.360;13.134;2023-03-15T12:44:45;101039.78;;;7.34;54.25
10064;BME280;5071;52.360;13.134;2023-03-15T12:49:47;101037.22;;;7.54;53.41
10064;BME280;5071;52.360;13.134;2023-03-15T12:54:59;101043.72;;;8.56;48.62
10064;BME280;5071;52.360;13.134;2023-03-15T13:00:03;101036.56;;;8.06;49.49
10064;BME280;5071;52.360;13.134;2023-03-15T13:05:15;101041.09;;;8.50;51.88
10064;BME280;5071;52.360;13.134;2023-03-15T13:10:37;101050.81;;;8.64;49.76
10064;BME280;5071;52.360;13.134;2023-03-15T13:15:43;101031.38;;;8.68;48.99
10064;BME280;5071;52.360;13.134;2023-03-15T13:21:04;101058.59;;;8.11;46.16
10064;BME280;5071;52.360;13.134;2023-03-15T13:26:23;101063.81;;;7.91;48.36
10064;BME280;5071;52.360;13.134;2023-03-15T13:31:30;101051.66;;;8.47;47.58
10064;BME280;5071;52.360;13.134;2023-03-15T13:36:39;101055.94;;;8.08;47.96
10064;BME280;5071;52.360;13.134;2023-03-15T13:41:42;101062.50;;;7.08;50.81
10064;BME280;5071;52.360;13.134;2023-03-15T13:46:46;101066.53;;;6.64;56.47
10064;BME280;5071;52.360;13.134;2023-03-15T13:51:51;101084.50;;;7.08;57.59
10064;BME280;5071;52.360;13.134;2023-03-15T13:57:00;101086.31;;;7.18;56.64
10064;BME280;5071;52.360;13.134;2023-03-15T14:02:04;101095.25;;;7.39;56.02
10064;BME280;5071;52.360;13.134;2023-03-15T14:07:26;101102.31;;;7.40;55.43
10064;BME280;5071;52.360;13.134;2023-03-15T14:12:31;101100.50;;;7.33;54.56
10064;BME280;5071;52.360;13.134;2023-03-15T14:17:33;101102.34;;;7.46;54.37
10064;BME280;5071;52.360;13.134;2023-03-15T14:22:40;101105.16;;;7.78;53.73
10064;BME280;5071;52.360;13.134;2023-03-15T14:27:44;101117.50;;;7.83;52.37
10064;BME280;5071;52.360;13.134;2023-03-15T14:32:51;101101.72;;;7.95;54.10
10064;BME280;5071;52.360;13.134;2023-03-15T14:38:02;101097.00;;;7.32;53.96
10064;BME280;5071;52.360;13.134;2023-03-15T14:43:06;101093.81;;;6.68;53.91
10064;BME280;5071;52.360;13.134;2023-03-15T14:48:13;101094.31;;;7.28;52.52
10064;BME280;5071;52.360;13.134;2023-03-15T14:53:19;101091.00;;;7.67;50.35
10064;BME280;5071;52.360;13.134;2023-03-15T14:58:23;101095.38;;;7.57;49.04
10064;BME280;5071;52.360;13.134;2023-03-15T15:03:31;101097.25;;;7.82;46.56
10064;BME280;5071;52.360;13.134;2023-03-15T15:08:36;101109.34;;;7.41;44.69
10064;BME280;5071;52.360;13.134;2023-03-15T15:13:41;101115.66;;;7.63;45.67
10064;BME280;5071;52.360;13.134;2023-03-15T15:18:43;101112.03;;;7.46;45.54
10064;BME280;5071;52.360;13.134;2023-03-15T15:23:45;101115.63;;;7.60;46.00
10064;BME280;5071;52.360;13.134;2023-03-15T15:29:00;101127.66;;;7.15;47.93
10064;BME280;5071;52.360;13.134;2023-03-15T15:34:02;101137.81;;;6.72;49.24
10064;BME280;5071;52.360;13.134;2023-03-15T15:39:17;101149.69;;;6.30;50.28
10064;BME280;5071;52.360;13.134;2023-03-15T15:44:23;101154.91;;;6.27;51.69
10064;BME280;5071;52.360;13.134;2023-03-15T15:49:25;101157.59;;;6.30;52.07
10064;BME280;5071;52.360;13.134;2023-03-15T15:54:28;101168.97;;;6.26;53.07
10064;BME280;5071;52.360;13.134;2023-03-15T15:59:37;101169.69;;;6.12;53.87
10064;BME280;5071;52.360;13.134;2023-03-15T16:04:39;101172.56;;;6.31;53.91
10064;BME280;5071;52.360;13.134;2023-03-15T16:09:44;101197.59;;;6.70;55.18
10064;BME280;5071;52.360;13.134;2023-03-15T16:14:48;101204.75;;;6.05;62.10
10064;BME280;5071;52.360;13.134;2023-03-15T16:19:51;101209.97;;;6.03;62.24
10064;BME280;5071;52.360;13.134;2023-03-15T16:24:55;101211.69;;;5.43;62.34
10064;BME280;5071;52.360;13.134;2023-03-15T16:30:00;101218.44;;;5.26;63.90
10064;BME280;5071;52.360;13.134;2023-03-15T16:35:04;101210.22;;;5.07;64.09
10064;BME280;5071;52.360;13.134;2023-03-15T16:40:13;101223.03;;;4.89;63.69
10064;BME280;5071;52.360;13.134;2023-03-15T16:45:18;101233.16;;;4.67;65.69
10064;BME280;5071;52.360;13.134;2023-03-15T16:50:20;101249.47;;;4.51;66.19
10064;BME280;5071;52.360;13.134;2023-03-15T16:55:24;101253.53;;;4.37;67.56
10064;BME280;5071;52.360;13.134;2023-03-15T17:00:28;101277.63;;;4.16;68.80
10064;BME280;5071;52.360;13.134;2023-03-15T17:05:31;101275.66;;;4.07;69.06
10064;BME280;5071;52.360;13.134;2023-03-15T17:10:34;101283.09;;;3.87;70.37
10064;BME280;5071;52.360;13.134;2023-03-15T17:15:38;101295.00;;;3.73;71.11
10064;BME280;5071;52.360;13.134;2023-03-15T17:20:41;101300.50;;;3.48;72.68
10064;BME280;5071;52.360;13.134;2023-03-15T17:25:44;101307.22;;;3.37;73.75
10064;BME280;5071;52.360;13.134;2023-03-15T17:30:47;101328.16;;;3.34;74.11
10064;BME280;5071;52.360;13.134;2023-03-15T17:35:56;101335.72;;;3.23;75.08
10064;BME280;5071;52.360;13.134;2023-03-15T17:40:58;101333.63;;;3.11;76.13
10064;BME280;5071;52.360;13.134;2023-03-15T17:46:01;101343.03;;;3.03;76.90
10064;BME280;5071;52.360;13.134;2023-03-15T17:51:04;101341.69;;;3.18;77.16
10064;BME280;5071;52.360;13.134;2023-03-15T17:56:07;101344.84;;;3.06;77.97
10064;BME280;5071;52.360;13.134;2023-03-15T18:01:14;101358.50;;;2.94;78.12
10064;BME280;5071;52.360;13.134;2023-03-15T18:06:17;101359.16;;;2.87;79.08
10064;BME280;5071;52.360;13.134;2023-03-15T18:11:22;101363.22;;;2.76;80.13
10064;BME280;5071;52.360;13.134;2023-03-15T18:16:27;101371.38;;;2.56;80.31
10064;BME280;5071;52.360;13.134;2023-03-15T18:21:30;101377.38;;;2.52;81.13
10064;BME280;5071;52.360;13.134;2023-03-15T18:26:32;101386.63;;;2.41;81.21
10064;BME280;5071;52.360;13.134;2023-03-15T18:31:35;101387.09;;;2.27;82.41
10064;BME280;5071;52.360;13.134;2023-03-15T18:36:38;101389.94;;;2.08;82.63
10064;BME280;5071;52.360;13.134;2023-03-15T18:41:40;101403.78;;;2.04;83.90
10064;BME280;5071;52.360;13.134;2023-03-15T18:46:44;101411.19;;;1.91;84.33
10064;BME280;5071;52.360;13.134;2023-03-15T18:51:46;101411.75;;;1.81;84.77
10064;BME280;5071;52.360;13.134;2023-03-15T18:56:49;101415.91;;;1.76;85.62
10064;BME280;5071;52.360;13.134;2023-03-15T19:01:52;101415.19;;;1.80;84.98
10064;BME280;5071;52.360;13.134;2023-03-15T19:06:54;101414.22;;;1.77;85.18
10064;BME280;5071;52.360;13.134;2023-03-15T19:11:57;101421.09;;;1.74;85.48
10064;BME280;5071;52.360;13.134;2023-03-15T19:17:01;101414.34;;;1.55;85.72
10064;BME280;5071;52.360;13.134;2023-03-15T19:22:06;101428.88;;;1.47;86.55
10064;BME280;5071;52.360;13.134;2023-03-15T19:27:09;101424.66;;;1.27;86.37
10064;BME280;5071;52.360;13.134;2023-03-15T19:32:13;101431.41;;;0.97;88.04
10064;BME280;5071;52.360;13.134;2023-03-15T19:37:16;101442.13;;;0.81;89.06
10064;BME280;5071;52.360;13.134;2023-03-15T19:42:20;101449.31;;;0.87;89.87
10064;BME280;5071;52.360;13.134;2023-03-15T19:47:25;101450.66;;;0.54;89.96
10064;BME280;5071;52.360;13.134;2023-03-15T19:52:28;101450.97;;;0.40;90.87
10064;BME280;5071;52.360;13.134;2023-03-15T19:57:31;101457.94;;;0.41;91.14
10064;BME280;5071;52.360;13.134;2023-03-15T20:02:35;101464.75;;;0.37;92.40
10064;BME280;5071;52.360;13.134;2023-03-15T20:07:37;101470.56;;;0.30;92.09
10064;BME280;5071;52.360;13.134;2023-03-15T20:12:40;101480.59;;;0.21;92.40
10064;BME280;5071;52.360;13.134;2023-03-15T20:17:45;101478.84;;;-0.02;91.98
10064;BME280;5071;52.360;13.134;2023-03-15T20:22:48;101487.22;;;-0.09;93.42
10064;BME280;5071;52.360;13.134;2023-03-15T20:27:51;101484.63;;;-0.09;94.05
10064;BME280;5071;52.360;13.134;2023-03-15T20:32:55;101488.75;;;-0.14;94.01
10064;BME280;5071;52.360;13.134;2023-03-15T20:37:58;101495.47;;;-0.19;93.89
10064;BME280;5071;52.360;13.134;2023-03-15T20:43:01;101505.78;;;-0.22;94.05
10064;BME280;5071;52.360;13.134;2023-03-15T20:48:05;101517.66;;;-0.29;94.37
10064;BME280;5071;52.360;13.134;2023-03-15T20:53:08;101517.31;;;-0.36;94.92
10064;BME280;5071;52.360;13.134;2023-03-15T20:58:10;101519.25;;;-0.32;95.05
10064;BME280;5071;52.360;13.134;2023-03-15T21:03:14;101529.25;;;-0.42;94.98
10064;BME280;5071;52.360;13.134;2023-03-15T21:08:17;101533.59;;;-0.42;96.35
10064;BME280;5071;52.360;13.134;2023-03-15T21:13:19;101541.84;;;-0.52;95.59
10064;BME280;5071;52.360;13.134;2023-03-15T21:18:23;101524.16;;;-0.77;95.57
10064;BME280;5071;52.360;13.134;2023-03-15T21:23:27;101532.31;;;-1.07;95.37
10064;BME280;5071;52.360;13.134;2023-03-15T21:28:29;101528.22;;;-1.02;97.05
10064;BME280;5071;52.360;13.134;2023-03-15T21:33:33;101536.72;;;-1.06;97.02
10064;BME280;5071;52.360;13.134;2023-03-15T21:38:36;101547.38;;;-1.20;96.45
10064;BME280;5071;52.360;13.134;2023-03-15T21:43:38;101546.53;;;-1.19;98.00
10064;BME280;5071;52.360;13.134;2023-03-15T21:48:41;101547.31;;;-1.03;98.81
10064;BME280;5071;52.360;13.134;2023-03-15T21:53:43;101544.19;;;-1.14;98.05
10064;BME280;5071;52.360;13.134;2023-03-15T21:58:45;101559.94;;;-1.29;98.13
10064;BME280;5071;52.360;13.134;2023-03-15T22:03:49;101546.81;;;-1.48;97.89
10064;BME280;5071;52.360;13.134;2023-03-15T22:08:51;101560.31;;;-1.39;98.49
10064;BME280;5071;52.360;13.134;2023-03-15T22:13:54;101567.16;;;-1.41;98.40
10064;BME280;5071;52.360;13.134;2023-03-15T22:18:57;101568.22;;;-1.72;98.21
10064;BME280;5071;52.360;13.134;2023-03-15T22:23:59;101572.00;;;-1.83;98.69
10064;BME280;5071;52.360;13.134;2023-03-15T22:29:02;101567.06;;;-1.95;98.70
10064;BME280;5071;52.360;13.134;2023-03-15T22:34:05;101577.38;;;-1.97;99.44
10064;BME280;5071;52.360;13.134;2023-03-15T22:39:08;101590.78;;;-1.89;99.76
10064;BME280;5071;52.360;13.134;2023-03-15T22:44:10;101585.84;;;-2.01;99.13
10064;BME280;5071;52.360;13.134;2023-03-15T22:49:13;101600.78;;;-2.13;99.54
10064;BME280;5071;52.360;13.134;2023-03-15T22:54:15;101596.41;;;-2.14;99.88
10064;BME280;5071;52.360;13.134;2023-03-15T22:59:17;101602.25;;;-2.18;100.00
10064;BME280;5071;52.360;13.134;2023-03-15T23:04:20;101598.03;;;-2.16;100.00
10064;BME280;5071;52.360;13.134;2023-03-15T23:09:23;101598.03;;;-2.32;100.00
10064;BME280;5071;52.360;13.134;2023-03-15T23:14:25;101606.97;;;-2.27;100.00
10064;BME280;5071;52.360;13.134;2023-03-15T23:19:29;101614.53;;;-2.32;100.00
10064;BME280;5071;52.360;13.134;2023-03-15T23:24:31;101599.75;;;-2.49;100.00
10064;BME280;5071;52.360;13.134;2023-03-15T23:29:33;101621.09;;;-2.55;100.00
10064;BME280;5071;52.360;13.134;2023-03-15T23:34:56;101611.56;;;-2.86;100.00
10064;BME280;5071;52.360;13.134;2023-03-15T23:39:58;101622.25;;;-2.81;100.00
10064;BME280;5071;52.360;13.134;2023-03-15T23:45:00;101619.69;;;-2.80;100.00
10064;BME280;5071;52.360;13.134;2023-03-15T23:50:04;101634.06;;;-2.86;100.00
10064;BME280;5071;52.360;13.134;2023-03-15T23:55:07;101620.38;;;-2.99;100.00
